createdAt,value
2018-08-22T00:01:41.893Z,51.58
2018-08-22T00:04:07.764Z,51.58
2018-08-22T00:06:33.768Z,51.61
2018-08-22T00:08:59.764Z,51.57
2018-08-22T00:11:25.714Z,51.57
2018-08-22T00:13:51.689Z,51.59
2018-08-22T00:16:17.660Z,51.60
2018-08-22T00:18:43.638Z,51.59
2018-08-22T00:21:09.614Z,51.54
2018-08-22T00:23:35.589Z,51.54
2018-08-22T00:26:01.560Z,51.55
2018-08-22T00:28:27.536Z,51.59
2018-08-22T00:30:53.512Z,51.56
2018-08-22T00:33:19.488Z,51.58
2018-08-22T00:35:45.467Z,51.57
2018-08-22T00:38:11.449Z,51.54
2018-08-22T00:40:37.423Z,51.57
2018-08-22T00:43:03.437Z,51.55
2018-08-22T00:45:29.411Z,51.58
2018-08-22T00:47:55.386Z,51.56
2018-08-22T00:50:21.366Z,51.60
2018-08-22T00:52:47.351Z,51.58
2018-08-22T00:55:13.332Z,51.57
2018-08-22T00:57:39.367Z,51.56
2018-08-22T01:00:05.329Z,51.58
2018-08-22T01:02:31.301Z,51.57
2018-08-22T01:04:57.274Z,51.57
2018-08-22T01:07:23.257Z,51.58
2018-08-22T01:09:49.239Z,51.55
2018-08-22T01:12:15.210Z,51.54
2018-08-22T01:14:41.189Z,51.54
2018-08-22T01:17:07.173Z,51.56
2018-08-22T01:19:33.145Z,51.56
2018-08-22T01:21:59.133Z,51.60
2018-08-22T01:24:25.111Z,51.55
2018-08-22T01:26:51.092Z,51.53
2018-08-22T01:29:17.064Z,51.55
2018-08-22T01:31:43.045Z,51.55
2018-08-22T01:34:09.026Z,51.55
2018-08-22T01:36:34.996Z,51.53
2018-08-22T01:39:01.065Z,51.54
2018-08-22T01:41:27.055Z,51.54
2018-08-22T01:43:53.019Z,51.50
2018-08-22T01:46:19.002Z,51.49
2018-08-22T01:48:44.981Z,51.52
2018-08-22T01:51:10.960Z,51.55
2018-08-22T01:53:36.974Z,51.50
2018-08-22T01:56:02.953Z,51.51
2018-08-22T01:58:28.926Z,51.52
2018-08-22T02:00:54.908Z,51.54
2018-08-22T02:03:20.890Z,51.53
2018-08-22T02:05:46.870Z,51.52
2018-08-22T02:08:12.857Z,51.53
2018-08-22T02:10:38.832Z,51.52
2018-08-22T02:13:04.806Z,51.54
2018-08-22T02:15:30.780Z,51.50
2018-08-22T02:17:56.753Z,51.54
2018-08-22T02:20:22.739Z,51.51
2018-08-22T02:22:48.705Z,51.53
2018-08-22T02:25:14.766Z,51.53
2018-08-22T02:27:40.661Z,51.51
2018-08-22T02:30:06.637Z,51.51
2018-08-22T02:32:32.617Z,51.52
2018-08-22T02:34:58.590Z,51.48
2018-08-22T02:37:24.570Z,51.51
2018-08-22T02:39:50.542Z,51.48
2018-08-22T02:42:16.558Z,51.50
2018-08-22T02:44:42.540Z,51.48
2018-08-22T02:47:08.515Z,51.46
2018-08-22T02:49:34.497Z,51.49
2018-08-22T02:52:00.476Z,51.49
2018-08-22T02:54:26.450Z,51.46
2018-08-22T02:56:52.442Z,51.46
2018-08-22T02:59:18.429Z,51.46
2018-08-22T03:01:44.401Z,51.53
2018-08-22T03:04:10.379Z,51.46
2018-08-22T03:06:36.425Z,51.48
2018-08-22T03:09:02.360Z,51.47
2018-08-22T03:11:28.332Z,51.46
2018-08-22T03:13:54.309Z,51.49
2018-08-22T03:16:20.282Z,51.50
2018-08-22T03:18:46.261Z,51.47
2018-08-22T03:21:12.242Z,51.49
2018-08-22T03:23:38.224Z,51.48
2018-08-22T03:26:04.205Z,51.46
2018-08-22T03:28:30.178Z,51.46
2018-08-22T03:30:56.157Z,51.47
2018-08-22T03:33:22.129Z,51.44
2018-08-22T03:35:48.114Z,51.43
2018-08-22T03:38:14.089Z,51.46
2018-08-22T03:40:40.065Z,51.45
2018-08-22T03:43:06.044Z,51.45
2018-08-22T03:45:32.115Z,51.45
2018-08-22T03:47:58.157Z,51.44
2018-08-22T03:50:24.107Z,51.42
2018-08-22T03:52:50.076Z,51.44
2018-08-22T03:55:16.053Z,51.43
2018-08-22T03:57:42.026Z,51.43
2018-08-22T04:00:08.040Z,51.45
2018-08-22T04:02:34.025Z,51.44
2018-08-22T04:05:00.016Z,51.43
2018-08-22T04:07:26.000Z,51.42
2018-08-22T04:09:51.976Z,51.47
2018-08-22T04:12:17.970Z,51.49
2018-08-22T04:14:43.969Z,51.44
2018-08-22T04:17:09.953Z,51.43
2018-08-22T04:19:35.930Z,51.43
2018-08-22T04:22:01.906Z,51.43
2018-08-22T04:24:27.880Z,51.46
2018-08-22T04:26:53.856Z,51.47
2018-08-22T04:29:19.832Z,51.46
2018-08-22T04:31:45.816Z,51.45
2018-08-22T04:34:11.794Z,51.46
2018-08-22T04:36:37.768Z,51.43
2018-08-22T04:39:03.775Z,51.44
2018-08-22T04:41:29.754Z,51.43
2018-08-22T04:43:55.737Z,51.44
2018-08-22T04:46:21.716Z,51.43
2018-08-22T04:48:47.729Z,51.48
2018-08-22T04:51:13.710Z,51.44
2018-08-22T04:53:39.686Z,51.44
2018-08-22T04:56:05.684Z,51.42
2018-08-22T04:58:31.660Z,51.42
2018-08-22T05:00:57.637Z,51.38
2018-08-22T05:03:23.622Z,51.43
2018-08-22T05:05:49.626Z,51.45
2018-08-22T05:08:15.580Z,51.39
2018-08-22T05:10:41.559Z,51.39
2018-08-22T05:13:07.534Z,51.41
2018-08-22T05:15:33.509Z,51.42
2018-08-22T05:17:59.496Z,51.38
2018-08-22T05:20:25.469Z,51.45
2018-08-22T05:22:51.445Z,51.37
2018-08-22T05:25:17.420Z,51.48
2018-08-22T05:27:43.419Z,51.37
2018-08-22T05:30:09.434Z,51.40
2018-08-22T05:32:35.368Z,51.40
2018-08-22T05:35:01.346Z,51.37
2018-08-22T05:37:27.333Z,51.43
2018-08-22T05:39:53.370Z,51.35
2018-08-22T05:42:19.320Z,51.42
2018-08-22T05:44:45.334Z,51.37
2018-08-22T05:47:11.305Z,51.35
2018-08-22T05:49:37.280Z,51.37
2018-08-22T05:52:03.256Z,51.39
2018-08-22T05:54:29.247Z,51.47
2018-08-22T05:56:55.221Z,51.37
2018-08-22T05:59:21.202Z,51.35
2018-08-22T06:01:47.222Z,51.38
2018-08-22T06:04:13.198Z,51.48
2018-08-22T06:06:39.171Z,51.39
2018-08-22T06:09:05.163Z,51.35
2018-08-22T06:11:31.124Z,51.34
2018-08-22T06:13:57.101Z,51.41
2018-08-22T06:16:23.073Z,51.35
2018-08-22T06:18:49.058Z,51.38
2018-08-22T06:21:15.044Z,51.34
2018-08-22T06:23:41.021Z,51.34
2018-08-22T06:26:06.994Z,51.37
2018-08-22T06:28:33.016Z,51.39
2018-08-22T06:30:58.995Z,51.41
2018-08-22T06:33:24.978Z,51.37
2018-08-22T06:35:50.974Z,51.37
2018-08-22T06:38:16.996Z,51.38
2018-08-22T06:40:42.953Z,51.36
2018-08-22T06:43:08.934Z,51.35
2018-08-22T06:45:34.913Z,51.32
2018-08-22T06:48:00.894Z,51.38
2018-08-22T06:50:26.894Z,51.34
2018-08-22T06:52:52.897Z,51.37
2018-08-22T06:55:18.915Z,51.35
2018-08-22T06:57:44.885Z,51.43
2018-08-22T07:00:10.857Z,51.39
2018-08-22T07:02:36.882Z,51.33
2018-08-22T07:05:02.858Z,51.32
2018-08-22T07:07:28.828Z,51.34
2018-08-22T07:09:54.804Z,51.36
2018-08-22T07:12:20.788Z,51.34
2018-08-22T07:14:46.768Z,51.36
2018-08-22T07:17:12.750Z,51.35
2018-08-22T07:19:38.763Z,51.33
2018-08-22T07:22:04.736Z,51.35
2018-08-22T07:24:30.710Z,51.34
2018-08-22T07:26:56.688Z,51.30
2018-08-22T07:29:22.660Z,51.35
2018-08-22T07:31:48.639Z,51.32
2018-08-22T07:34:14.618Z,51.36
2018-08-22T07:36:40.611Z,51.29
2018-08-22T07:39:06.593Z,51.28
2018-08-22T07:41:32.574Z,51.39
2018-08-22T07:43:58.582Z,51.38
2018-08-22T07:46:24.534Z,51.32
2018-08-22T07:48:50.506Z,51.31
2018-08-22T07:51:16.517Z,51.36
2018-08-22T07:53:42.496Z,51.31
2018-08-22T07:56:08.481Z,51.32
2018-08-22T07:58:34.453Z,51.30
2018-08-22T08:01:00.432Z,51.33
2018-08-22T08:03:26.425Z,51.31
2018-08-22T08:05:52.411Z,51.30
2018-08-22T08:08:18.387Z,51.35
2018-08-22T08:10:44.366Z,51.31
2018-08-22T08:13:10.354Z,51.32
2018-08-22T08:15:36.329Z,51.35
2018-08-22T08:18:02.306Z,51.35
2018-08-22T08:20:28.281Z,51.33
2018-08-22T08:22:54.262Z,51.30
2018-08-22T08:25:20.241Z,51.32
2018-08-22T08:27:46.220Z,51.37
2018-08-22T08:30:12.195Z,51.33
2018-08-22T08:32:38.180Z,51.31
2018-08-22T08:35:04.157Z,51.32
2018-08-22T08:37:30.143Z,51.37
2018-08-22T08:39:56.117Z,51.37
2018-08-22T08:42:22.094Z,51.32
2018-08-22T08:44:48.068Z,51.32
2018-08-22T08:47:14.049Z,51.37
2018-08-22T08:49:40.098Z,51.35
2018-08-22T08:52:06.010Z,51.31
2018-08-22T08:54:31.987Z,51.32
2018-08-22T08:56:57.965Z,51.31
2018-08-22T08:59:23.945Z,51.28
2018-08-22T09:01:49.916Z,51.31
2018-08-22T09:04:15.948Z,51.35
2018-08-22T09:06:41.881Z,51.23
2018-08-22T09:09:07.858Z,51.27
2018-08-22T09:11:33.834Z,51.24
2018-08-22T09:13:59.850Z,51.31
2018-08-22T09:16:25.838Z,51.28
2018-08-22T09:18:51.862Z,51.33
2018-08-22T09:21:17.857Z,51.25
2018-08-22T09:23:43.784Z,51.34
2018-08-22T09:26:09.764Z,51.30
2018-08-22T09:28:35.768Z,51.21
2018-08-22T09:31:01.745Z,51.21
2018-08-22T09:33:27.717Z,51.24
2018-08-22T09:35:53.705Z,51.30
2018-08-22T09:38:19.684Z,51.30
2018-08-22T09:40:45.702Z,51.21
2018-08-22T09:43:11.691Z,51.21
2018-08-22T09:45:37.612Z,51.29
2018-08-22T09:48:03.613Z,51.25
2018-08-22T09:50:29.585Z,51.24
2018-08-22T09:52:55.605Z,51.21
2018-08-22T09:55:21.591Z,51.25
2018-08-22T09:57:47.567Z,51.26
2018-08-22T10:00:13.628Z,51.24
2018-08-22T10:02:39.574Z,51.28
2018-08-22T10:05:05.561Z,51.27
2018-08-22T10:07:31.603Z,51.29
2018-08-22T10:09:57.578Z,51.25
2018-08-22T10:12:23.526Z,51.24
2018-08-22T10:14:49.470Z,51.28
2018-08-22T10:17:15.508Z,51.26
2018-08-22T10:19:41.535Z,51.21
2018-08-22T10:22:07.473Z,51.25
2018-08-22T10:24:33.472Z,51.22
2018-08-22T10:26:59.464Z,51.24
2018-08-22T10:29:25.425Z,51.23
2018-08-22T10:31:51.410Z,51.25
2018-08-22T10:34:17.401Z,51.19
2018-08-22T10:36:43.401Z,51.24
2018-08-22T10:39:09.376Z,51.19
2018-08-22T10:41:35.356Z,51.26
2018-08-22T10:44:01.337Z,51.21
2018-08-22T10:46:27.336Z,51.24
2018-08-22T10:48:53.334Z,51.24
2018-08-22T10:51:19.292Z,51.22
2018-08-22T10:53:45.270Z,51.19
2018-08-22T10:56:11.257Z,51.24
2018-08-22T10:58:37.235Z,51.23
2018-08-22T11:01:03.211Z,51.20
2018-08-22T11:03:29.190Z,51.20
2018-08-22T11:05:55.171Z,51.21
2018-08-22T11:08:21.145Z,51.23
2018-08-22T11:10:47.127Z,51.23
2018-08-22T11:13:13.106Z,51.19
2018-08-22T11:15:39.138Z,51.22
2018-08-22T11:18:05.094Z,51.23
2018-08-22T11:20:31.082Z,51.18
2018-08-22T11:22:57.064Z,51.23
2018-08-22T11:25:23.091Z,51.16
2018-08-22T11:27:49.066Z,51.22
2018-08-22T11:30:15.036Z,51.20
2018-08-22T11:32:41.033Z,51.19
2018-08-22T11:35:07.012Z,51.23
2018-08-22T11:37:32.994Z,51.22
2018-08-22T11:39:58.968Z,51.21
2018-08-22T11:42:25.000Z,51.19
2018-08-22T11:44:50.992Z,51.20
2018-08-22T11:47:16.975Z,51.19
2018-08-22T11:49:42.946Z,51.20
2018-08-22T11:52:08.925Z,51.17
2018-08-22T11:54:34.924Z,51.21
2018-08-22T11:57:00.928Z,51.20
2018-08-22T11:59:26.875Z,51.20
2018-08-22T12:01:52.946Z,51.16
2018-08-22T12:04:18.878Z,51.18
2018-08-22T12:06:44.861Z,51.18
2018-08-22T12:09:10.844Z,51.20
2018-08-22T12:11:36.875Z,51.20
2018-08-22T12:14:02.825Z,51.20
2018-08-22T12:16:29.223Z,51.20
2018-08-22T12:18:55.171Z,51.19
2018-08-22T12:21:21.146Z,51.19
2018-08-22T12:23:47.120Z,51.20
2018-08-22T12:26:13.099Z,51.14
2018-08-22T12:28:39.078Z,51.18
2018-08-22T12:31:05.144Z,51.19
2018-08-22T12:33:31.048Z,51.19
2018-08-22T12:35:57.025Z,51.19
2018-08-22T12:38:23.005Z,51.20
2018-08-22T12:40:49.024Z,51.17
2018-08-22T12:43:15.008Z,51.19
2018-08-22T12:45:40.993Z,51.19
2018-08-22T12:48:06.970Z,51.19
2018-08-22T12:50:32.959Z,51.20
2018-08-22T12:52:58.931Z,51.21
2018-08-22T12:55:24.927Z,51.23
2018-08-22T12:57:50.900Z,51.23
2018-08-22T13:00:16.875Z,51.20
2018-08-22T13:02:42.853Z,51.21
2018-08-22T13:05:08.860Z,51.21
2018-08-22T13:07:34.857Z,51.22
2018-08-22T13:10:00.861Z,51.23
2018-08-22T13:12:26.875Z,51.23
2018-08-22T13:14:52.849Z,51.24
2018-08-22T13:17:18.829Z,51.24
2018-08-22T13:19:44.851Z,51.24
2018-08-22T13:22:10.852Z,51.25
2018-08-22T13:24:36.861Z,51.25
2018-08-22T13:27:02.847Z,51.26
2018-08-22T13:29:28.816Z,51.26
2018-08-22T13:31:54.813Z,51.26
2018-08-22T13:34:20.789Z,51.25
2018-08-22T13:36:46.772Z,51.24
2018-08-22T13:39:12.792Z,51.24
2018-08-22T13:41:38.741Z,51.25
2018-08-22T13:44:04.737Z,51.23
2018-08-22T13:46:30.726Z,51.24
2018-08-22T13:48:56.706Z,51.23
2018-08-22T13:51:22.682Z,51.24
2018-08-22T13:53:48.712Z,51.25
2018-08-22T13:56:14.690Z,51.25
2018-08-22T13:58:40.659Z,51.24
2018-08-22T14:01:06.659Z,51.26
2018-08-22T14:03:32.647Z,51.24
2018-08-22T14:05:58.645Z,51.25
2018-08-22T14:08:24.628Z,51.27
2018-08-22T14:10:50.596Z,51.25
2018-08-22T14:13:16.598Z,51.26
2018-08-22T14:15:42.596Z,51.26
2018-08-22T14:18:08.575Z,51.25
2018-08-22T14:20:34.552Z,51.26
2018-08-22T14:23:00.526Z,51.25
2018-08-22T14:25:26.520Z,51.28
2018-08-22T14:27:52.504Z,51.24
2018-08-22T14:30:18.550Z,51.26
2018-08-22T14:32:44.514Z,51.28
2018-08-22T14:35:10.620Z,51.26
2018-08-22T14:37:36.616Z,51.25
2018-08-22T14:40:02.658Z,51.27
2018-08-22T14:42:28.602Z,51.26
2018-08-22T14:44:54.689Z,51.26
2018-08-22T14:47:20.617Z,51.28
2018-08-22T14:49:46.610Z,51.25
2018-08-22T14:52:12.581Z,51.28
2018-08-22T14:54:38.579Z,51.28
2018-08-22T14:57:04.561Z,51.28
2018-08-22T14:59:30.536Z,51.29
2018-08-22T15:01:56.509Z,51.29
2018-08-22T15:04:22.539Z,51.29
2018-08-22T15:06:48.533Z,51.31
2018-08-22T15:09:14.541Z,51.31
2018-08-22T15:11:40.484Z,51.29
2018-08-22T15:14:06.477Z,51.30
2018-08-22T15:16:32.474Z,51.28
2018-08-22T15:18:58.438Z,51.26
2018-08-22T15:21:24.432Z,51.25
2018-08-22T15:23:50.412Z,51.23
2018-08-22T15:26:16.393Z,51.22
2018-08-22T15:28:42.384Z,51.22
2018-08-22T15:31:08.366Z,51.19
2018-08-22T15:33:34.353Z,51.15
2018-08-22T15:36:00.352Z,51.16
2018-08-22T15:38:26.348Z,51.14
2018-08-22T15:40:52.404Z,51.13
2018-08-22T15:43:18.322Z,51.11
2018-08-22T15:45:44.315Z,51.08
2018-08-22T15:48:10.313Z,51.09
2018-08-22T15:50:36.302Z,51.09
2018-08-22T15:53:02.322Z,51.09
2018-08-22T15:55:28.283Z,51.07
2018-08-22T15:57:54.267Z,51.06
2018-08-22T16:00:20.305Z,51.06
2018-08-22T16:02:46.285Z,51.03
2018-08-22T16:05:12.276Z,51.03
2018-08-22T16:07:38.282Z,51.01
2018-08-22T16:10:04.283Z,50.99
2018-08-22T16:12:30.261Z,50.97
2018-08-22T16:14:56.274Z,51.03
2018-08-22T16:17:22.273Z,51.02
2018-08-22T16:19:48.263Z,51.00
2018-08-22T16:22:14.261Z,51.00
2018-08-22T16:24:40.238Z,50.98
2018-08-22T16:27:06.225Z,51.00
2018-08-22T16:29:32.202Z,51.00
2018-08-22T16:31:58.184Z,50.99
2018-08-22T16:34:24.177Z,51.01
2018-08-22T16:36:50.154Z,51.02
2018-08-22T16:39:16.140Z,51.01
2018-08-22T16:41:42.114Z,50.99
2018-08-22T16:44:08.164Z,50.98
2018-08-22T16:46:34.160Z,51.01
2018-08-22T16:49:00.152Z,51.03
2018-08-22T16:51:26.131Z,51.04
2018-08-22T16:53:52.100Z,51.07
2018-08-22T16:56:18.096Z,51.06
2018-08-22T16:58:44.083Z,51.07
2018-08-22T17:01:10.107Z,51.07
2018-08-22T17:03:36.081Z,51.11
2018-08-22T17:06:02.110Z,51.13
2018-08-22T17:08:28.119Z,51.14
2018-08-22T17:10:54.066Z,51.16
2018-08-22T17:13:20.044Z,51.16
2018-08-22T17:15:46.039Z,51.14
2018-08-22T17:18:12.018Z,51.16
2018-08-22T17:20:38.016Z,51.16
2018-08-22T17:23:04.011Z,51.20
2018-08-22T17:25:30.001Z,51.21
2018-08-22T17:27:56.000Z,51.20
2018-08-22T17:30:22.017Z,51.21
2018-08-22T17:32:47.953Z,51.24
2018-08-22T17:35:13.934Z,51.25
2018-08-22T17:37:39.920Z,51.24
2018-08-22T17:40:05.923Z,51.25
2018-08-22T17:42:31.933Z,51.27
2018-08-22T17:44:57.951Z,51.26
2018-08-22T17:47:23.897Z,51.27
2018-08-22T17:49:49.872Z,51.28
2018-08-22T17:52:15.848Z,51.30
2018-08-22T17:54:41.846Z,51.28
2018-08-22T17:57:07.836Z,51.29
2018-08-22T17:59:35.068Z,51.30
2018-08-22T18:02:01.198Z,51.31
2018-08-22T18:04:27.197Z,51.31
2018-08-22T18:06:53.196Z,51.31
2018-08-22T18:09:19.181Z,51.31
2018-08-22T18:11:45.165Z,51.32
2018-08-22T18:14:11.137Z,51.32
2018-08-22T18:16:37.109Z,51.34
2018-08-22T18:19:03.091Z,51.33
2018-08-22T18:21:29.064Z,51.35
2018-08-22T18:23:55.076Z,51.34
2018-08-22T18:26:21.129Z,51.35
2018-08-22T18:28:47.100Z,51.34
2018-08-22T18:31:13.096Z,51.34
2018-08-22T18:33:39.069Z,51.35
2018-08-22T18:36:05.055Z,51.35
2018-08-22T18:38:31.041Z,51.33
2018-08-22T18:40:57.016Z,51.35
2018-08-22T18:43:22.994Z,51.36
2018-08-22T18:45:48.973Z,51.37
2018-08-22T18:48:14.967Z,51.37
2018-08-22T18:50:40.960Z,51.37
2018-08-22T18:53:06.942Z,51.38
2018-08-22T18:55:32.944Z,51.37
2018-08-22T18:57:58.924Z,51.38
2018-08-22T19:00:24.918Z,51.39
2018-08-22T19:02:50.878Z,51.39
2018-08-22T19:05:16.852Z,51.39
2018-08-22T19:07:42.831Z,51.39
2018-08-22T19:10:08.809Z,51.40
2018-08-22T19:12:34.816Z,51.40
2018-08-22T19:15:00.814Z,51.38
2018-08-22T19:17:26.862Z,51.41
2018-08-22T19:19:52.800Z,51.40
2018-08-22T19:22:18.785Z,51.39
2018-08-22T19:24:44.776Z,51.40
2018-08-22T19:27:10.778Z,51.41
2018-08-22T19:29:36.754Z,51.41
2018-08-22T19:32:02.732Z,51.42
2018-08-22T19:34:28.711Z,51.42
2018-08-22T19:36:54.705Z,51.42
2018-08-22T19:39:20.726Z,51.42
2018-08-22T19:41:46.687Z,51.41
2018-08-22T19:44:12.664Z,51.41
2018-08-22T19:46:38.667Z,51.42
2018-08-22T19:49:04.748Z,51.42
2018-08-22T19:51:30.649Z,51.42
2018-08-22T19:53:56.684Z,51.43
2018-08-22T19:56:22.684Z,51.44
2018-08-22T19:58:48.594Z,51.43
2018-08-22T20:01:14.573Z,51.44
2018-08-22T20:03:40.605Z,51.45
2018-08-22T20:06:06.600Z,51.44
2018-08-22T20:08:32.596Z,51.45
2018-08-22T20:10:58.576Z,51.45
2018-08-22T20:13:24.556Z,51.45
2018-08-22T20:15:50.557Z,51.45
2018-08-22T20:18:16.538Z,51.45
2018-08-22T20:20:42.536Z,51.43
2018-08-22T20:23:08.529Z,51.44
2018-08-22T20:25:34.520Z,51.45
2018-08-22T20:28:00.497Z,51.46
2018-08-22T20:30:26.547Z,51.46
2018-08-22T20:32:52.478Z,51.46
2018-08-22T20:35:18.472Z,51.45
2018-08-22T20:37:44.476Z,51.47
2018-08-22T20:40:10.506Z,51.49
2018-08-22T20:42:36.586Z,51.48
2018-08-22T20:45:02.515Z,51.48
2018-08-22T20:47:28.509Z,51.47
2018-08-22T20:49:54.476Z,51.48
2018-08-22T20:52:20.453Z,51.49
2018-08-22T20:54:46.434Z,51.47
2018-08-22T20:57:12.414Z,51.47
2018-08-22T20:59:38.398Z,51.48
2018-08-22T21:02:04.427Z,51.45
2018-08-22T21:04:30.405Z,51.50
2018-08-22T21:06:56.390Z,51.48
2018-08-22T21:09:22.386Z,51.50
2018-08-22T21:11:48.373Z,51.50
2018-08-22T21:14:14.361Z,51.51
2018-08-22T21:16:40.337Z,51.50
2018-08-22T21:19:06.308Z,51.52
2018-08-22T21:21:32.288Z,51.52
2018-08-22T21:23:58.264Z,51.52
2018-08-22T21:26:24.251Z,51.49
2018-08-22T21:28:50.224Z,51.52
2018-08-22T21:31:16.211Z,51.49
2018-08-22T21:33:42.200Z,51.52
2018-08-22T21:36:08.181Z,51.48
2018-08-22T21:38:34.154Z,51.51
2018-08-22T21:41:00.135Z,51.54
2018-08-22T21:43:26.114Z,51.54
2018-08-22T21:45:52.115Z,51.53
2018-08-22T21:48:18.100Z,51.51
2018-08-22T21:50:44.074Z,51.53
2018-08-22T21:53:10.054Z,51.54
2018-08-22T21:55:36.039Z,51.54
2018-08-22T21:58:02.031Z,51.52
2018-08-22T22:00:28.005Z,51.51
2018-08-22T22:02:54.018Z,51.54
2018-08-22T22:05:19.994Z,51.53
2018-08-22T22:07:45.973Z,51.53
2018-08-22T22:10:11.955Z,51.55
2018-08-22T22:12:37.945Z,51.55
2018-08-22T22:15:03.916Z,51.54
2018-08-22T22:17:29.898Z,51.51
2018-08-22T22:19:55.938Z,51.54
2018-08-22T22:22:21.915Z,51.56
2018-08-22T22:24:47.885Z,51.52
2018-08-22T22:27:13.878Z,51.55
2018-08-22T22:29:39.850Z,51.55
2018-08-22T22:32:05.866Z,51.54
2018-08-22T22:34:31.814Z,51.55
2018-08-22T22:36:57.796Z,51.54
2018-08-22T22:39:23.769Z,51.56
2018-08-22T22:41:49.790Z,51.51
2018-08-22T22:44:15.765Z,51.46
2018-08-22T22:46:41.745Z,51.54
2018-08-22T22:49:07.771Z,51.55
2018-08-22T22:51:33.750Z,51.52
2018-08-22T22:53:59.727Z,51.56
2018-08-22T22:56:25.762Z,51.55
2018-08-22T22:58:51.712Z,51.54
2018-08-22T23:01:17.704Z,51.53
2018-08-22T23:03:43.681Z,51.53
2018-08-22T23:06:09.654Z,51.46
2018-08-22T23:08:35.630Z,51.49
2018-08-22T23:11:01.651Z,51.53
2018-08-22T23:13:27.631Z,51.52
2018-08-22T23:15:53.599Z,51.54
2018-08-22T23:18:19.595Z,51.52
2018-08-22T23:20:45.557Z,51.53
2018-08-22T23:23:11.578Z,51.44
2018-08-22T23:25:37.596Z,51.49
2018-08-22T23:28:03.582Z,51.47
2018-08-22T23:30:29.552Z,51.49
2018-08-22T23:32:55.533Z,51.52
2018-08-22T23:35:21.514Z,51.41
2018-08-22T23:37:47.489Z,51.51
2018-08-22T23:40:13.472Z,51.51
2018-08-22T23:42:39.454Z,51.42
2018-08-22T23:45:05.443Z,51.50
2018-08-22T23:47:31.430Z,51.48
2018-08-22T23:49:57.404Z,51.45
2018-08-22T23:52:23.380Z,51.46
2018-08-22T23:54:49.365Z,51.48
2018-08-22T23:57:15.364Z,51.49
2018-08-22T23:59:41.354Z,51.37
